sensor_id;sensor_type;location;lat;lon;timestamp;P1;durP1;ratioP1;P2;durP2;ratioP2
32250;SDS011;41295;48.518;9.206;2023-02-03T00:01:11;2.63;;;1.48;;
32250;SDS011;41295;48.518;9.206;2023-02-03T00:03:18;6.07;;;1.60;;
32250;SDS011;41295;48.518;9.206;2023-02-03T00:05:21;2.95;;;1.83;;
32250;SDS011;41295;48.518;9.206;2023-02-03T00:07:24;6.25;;;1.88;;
32250;SDS011;41295;48.518;9.206;2023-02-03T00:09:26;2.85;;;1.45;;
32250;SDS011;41295;48.518;9.206;2023-02-03T00:11:31;3.95;;;1.80;;
32250;SDS011;41295;48.518;9.206;2023-02-03T00:13:33;4.65;;;1.73;;
32250;SDS011;41295;48.518;9.206;2023-02-03T00:15:36;1.70;;;1.30;;
32250;SDS011;41295;48.518;9.206;2023-02-03T00:17:39;2.90;;;1.48;;
32250;SDS011;41295;48.518;9.206;2023-02-03T00:19:42;3.53;;;1.48;;
32250;SDS011;41295;48.518;9.206;2023-02-03T00:21:44;3.70;;;1.55;;
32250;SDS011;41295;48.518;9.206;2023-02-03T00:23:47;2.60;;;1.73;;
32250;SDS011;41295;48.518;9.206;2023-02-03T00:25:50;3.40;;;1.30;;
32250;SDS011;41295;48.518;9.206;2023-02-03T00:27:55;2.65;;;1.35;;
32250;SDS011;41295;48.518;9.206;2023-02-03T00:29:58;5.25;;;1.42;;
32250;SDS011;41295;48.518;9.206;2023-02-03T00:32:00;4.20;;;1.40;;
32250;SDS011;41295;48.518;9.206;2023-02-03T00:34:03;2.50;;;1.35;;
32250;SDS011;41295;48.518;9.206;2023-02-03T00:36:06;5.65;;;1.52;;
32250;SDS011;41295;48.518;9.206;2023-02-03T00:38:09;4.60;;;1.42;;
32250;SDS011;41295;48.518;9.206;2023-02-03T00:40:12;3.35;;;1.60;;
32250;SDS011;41295;48.518;9.206;2023-02-03T00:42:15;3.63;;;1.50;;
32250;SDS011;41295;48.518;9.206;2023-02-03T00:44:18;4.55;;;1.27;;
32250;SDS011;41295;48.518;9.206;2023-02-03T00:46:21;2.28;;;1.17;;
32250;SDS011;41295;48.518;9.206;2023-02-03T00:48:24;5.53;;;1.42;;
32250;SDS011;41295;48.518;9.206;2023-02-03T00:50:26;2.75;;;1.45;;
32250;SDS011;41295;48.518;9.206;2023-02-03T00:52:29;3.20;;;1.40;;
32250;SDS011;41295;48.518;9.206;2023-02-03T00:54:34;2.70;;;1.27;;
32250;SDS011;41295;48.518;9.206;2023-02-03T00:56:36;2.75;;;1.35;;
32250;SDS011;41295;48.518;9.206;2023-02-03T00:58:39;2.83;;;1.70;;
32250;SDS011;41295;48.518;9.206;2023-02-03T01:00:43;3.20;;;1.42;;
32250;SDS011;41295;48.518;9.206;2023-02-03T01:02:46;2.10;;;1.35;;
32250;SDS011;41295;48.518;9.206;2023-02-03T01:04:49;5.65;;;1.33;;
32250;SDS011;41295;48.518;9.206;2023-02-03T01:06:52;2.78;;;1.27;;
32250;SDS011;41295;48.518;9.206;2023-02-03T01:08:57;5.78;;;1.42;;
32250;SDS011;41295;48.518;9.206;2023-02-03T01:11:04;1.35;;;1.00;;
32250;SDS011;41295;48.518;9.206;2023-02-03T01:13:07;2.63;;;1.52;;
32250;SDS011;41295;48.518;9.206;2023-02-03T01:15:10;3.42;;;1.27;;
32250;SDS011;41295;48.518;9.206;2023-02-03T01:17:14;2.67;;;1.40;;
32250;SDS011;41295;48.518;9.206;2023-02-03T01:19:16;2.72;;;1.30;;
32250;SDS011;41295;48.518;9.206;2023-02-03T01:21:20;4.65;;;1.65;;
32250;SDS011;41295;48.518;9.206;2023-02-03T01:23:24;2.60;;;1.60;;
32250;SDS011;41295;48.518;9.206;2023-02-03T01:25:26;2.20;;;1.10;;
32250;SDS011;41295;48.518;9.206;2023-02-03T01:27:30;2.88;;;1.73;;
32250;SDS011;41295;48.518;9.206;2023-02-03T01:29:32;3.70;;;1.35;;
32250;SDS011;41295;48.518;9.206;2023-02-03T01:31:36;4.63;;;1.23;;
32250;SDS011;41295;48.518;9.206;2023-02-03T01:33:41;2.47;;;1.27;;
32250;SDS011;41295;48.518;9.206;2023-02-03T01:35:47;2.75;;;1.27;;
32250;SDS011;41295;48.518;9.206;2023-02-03T01:37:49;1.58;;;1.10;;
32250;SDS011;41295;48.518;9.206;2023-02-03T01:39:52;4.38;;;1.27;;
32250;SDS011;41295;48.518;9.206;2023-02-03T01:41:55;5.28;;;1.45;;
32250;SDS011;41295;48.518;9.206;2023-02-03T01:43:58;3.63;;;1.20;;
32250;SDS011;41295;48.518;9.206;2023-02-03T01:46:03;2.40;;;1.30;;
32250;SDS011;41295;48.518;9.206;2023-02-03T01:48:17;4.38;;;1.25;;
32250;SDS011;41295;48.518;9.206;2023-02-03T01:50:22;3.78;;;1.50;;
32250;SDS011;41295;48.518;9.206;2023-02-03T01:52:28;2.30;;;1.38;;
32250;SDS011;41295;48.518;9.206;2023-02-03T01:54:34;5.00;;;1.45;;
32250;SDS011;41295;48.518;9.206;2023-02-03T01:56:43;2.90;;;1.27;;
32250;SDS011;41295;48.518;9.206;2023-02-03T01:58:49;3.47;;;1.27;;
32250;SDS011;41295;48.518;9.206;2023-02-03T02:00:52;3.35;;;1.20;;
32250;SDS011;41295;48.518;9.206;2023-02-03T02:02:58;2.55;;;1.40;;
32250;SDS011;41295;48.518;9.206;2023-02-03T02:05:04;5.15;;;1.50;;
32250;SDS011;41295;48.518;9.206;2023-02-03T02:07:10;4.35;;;1.35;;
32250;SDS011;41295;48.518;9.206;2023-02-03T02:09:15;3.15;;;1.40;;
32250;SDS011;41295;48.518;9.206;2023-02-03T02:11:18;3.22;;;1.38;;
32250;SDS011;41295;48.518;9.206;2023-02-03T02:13:22;2.80;;;1.30;;
32250;SDS011;41295;48.518;9.206;2023-02-03T02:15:27;2.63;;;1.35;;
32250;SDS011;41295;48.518;9.206;2023-02-03T02:17:50;3.78;;;1.20;;
32250;SDS011;41295;48.518;9.206;2023-02-03T02:22:54;3.85;;;1.80;;
32250;SDS011;41295;48.518;9.206;2023-02-03T02:25:24;3.80;;;1.42;;
32250;SDS011;41295;48.518;9.206;2023-02-03T02:27:51;3.25;;;1.33;;
32250;SDS011;41295;48.518;9.206;2023-02-03T02:30:25;3.45;;;1.58;;
32250;SDS011;41295;48.518;9.206;2023-02-03T02:32:45;3.25;;;1.13;;
32250;SDS011;41295;48.518;9.206;2023-02-03T02:34:56;5.75;;;1.92;;
32250;SDS011;41295;48.518;9.206;2023-02-03T02:37:06;3.85;;;1.38;;
32250;SDS011;41295;48.518;9.206;2023-02-03T02:39:21;5.88;;;1.50;;
32250;SDS011;41295;48.518;9.206;2023-02-03T02:41:27;2.60;;;1.30;;
32250;SDS011;41295;48.518;9.206;2023-02-03T02:43:38;1.83;;;1.40;;
32250;SDS011;41295;48.518;9.206;2023-02-03T02:45:44;3.28;;;1.33;;
32250;SDS011;41295;48.518;9.206;2023-02-03T02:47:50;4.70;;;1.33;;
32250;SDS011;41295;48.518;9.206;2023-02-03T02:49:58;2.58;;;1.10;;
32250;SDS011;41295;48.518;9.206;2023-02-03T02:52:04;6.38;;;1.25;;
32250;SDS011;41295;48.518;9.206;2023-02-03T02:54:10;2.67;;;1.25;;
32250;SDS011;41295;48.518;9.206;2023-02-03T02:56:17;2.00;;;1.05;;
32250;SDS011;41295;48.518;9.206;2023-02-03T02:58:20;3.25;;;1.27;;
32250;SDS011;41295;48.518;9.206;2023-02-03T03:00:27;4.55;;;1.20;;
32250;SDS011;41295;48.518;9.206;2023-02-03T03:02:31;3.15;;;1.40;;
32250;SDS011;41295;48.518;9.206;2023-02-03T03:04:36;2.47;;;1.10;;
32250;SDS011;41295;48.518;9.206;2023-02-03T03:06:41;2.28;;;0.95;;
32250;SDS011;41295;48.518;9.206;2023-02-03T03:08:49;3.05;;;1.05;;
32250;SDS011;41295;48.518;9.206;2023-02-03T03:10:56;1.67;;;1.02;;
32250;SDS011;41295;48.518;9.206;2023-02-03T03:13:03;1.20;;;1.10;;
32250;SDS011;41295;48.518;9.206;2023-02-03T03:15:09;2.75;;;1.08;;
32250;SDS011;41295;48.518;9.206;2023-02-03T03:17:16;2.22;;;1.20;;
32250;SDS011;41295;48.518;9.206;2023-02-03T03:19:23;2.72;;;0.95;;
32250;SDS011;41295;48.518;9.206;2023-02-03T03:21:31;3.47;;;1.00;;
32250;SDS011;41295;48.518;9.206;2023-02-03T03:23:38;2.28;;;1.30;;
32250;SDS011;41295;48.518;9.206;2023-02-03T03:25:46;2.63;;;1.25;;
32250;SDS011;41295;48.518;9.206;2023-02-03T03:27:53;2.65;;;1.20;;
32250;SDS011;41295;48.518;9.206;2023-02-03T03:30:00;1.75;;;1.02;;
32250;SDS011;41295;48.518;9.206;2023-02-03T03:32:06;2.42;;;0.70;;
32250;SDS011;41295;48.518;9.206;2023-02-03T03:34:10;2.03;;;0.90;;
32250;SDS011;41295;48.518;9.206;2023-02-03T03:36:17;3.88;;;1.08;;
32250;SDS011;41295;48.518;9.206;2023-02-03T03:38:27;2.00;;;1.10;;
32250;SDS011;41295;48.518;9.206;2023-02-03T03:40:35;1.35;;;1.00;;
32250;SDS011;41295;48.518;9.206;2023-02-03T03:42:43;1.70;;;1.08;;
32250;SDS011;41295;48.518;9.206;2023-02-03T03:44:52;3.28;;;0.95;;
32250;SDS011;41295;48.518;9.206;2023-02-03T03:47:02;2.33;;;1.13;;
32250;SDS011;41295;48.518;9.206;2023-02-03T03:49:10;2.33;;;0.93;;
32250;SDS011;41295;48.518;9.206;2023-02-03T03:51:15;1.83;;;1.10;;
32250;SDS011;41295;48.518;9.206;2023-02-03T03:53:21;1.25;;;1.00;;
32250;SDS011;41295;48.518;9.206;2023-02-03T03:55:27;1.92;;;1.15;;
32250;SDS011;41295;48.518;9.206;2023-02-03T03:57:33;1.98;;;0.90;;
32250;SDS011;41295;48.518;9.206;2023-02-03T03:59:38;5.32;;;1.10;;
32250;SDS011;41295;48.518;9.206;2023-02-03T04:01:45;1.58;;;0.90;;
32250;SDS011;41295;48.518;9.206;2023-02-03T04:03:51;3.13;;;1.02;;
32250;SDS011;41295;48.518;9.206;2023-02-03T04:05:56;1.02;;;0.90;;
32250;SDS011;41295;48.518;9.206;2023-02-03T04:07:59;2.35;;;0.93;;
32250;SDS011;41295;48.518;9.206;2023-02-03T04:10:03;3.75;;;1.10;;
32250;SDS011;41295;48.518;9.206;2023-02-03T04:12:15;1.33;;;1.05;;
32250;SDS011;41295;48.518;9.206;2023-02-03T04:14:23;1.45;;;0.70;;
32250;SDS011;41295;48.518;9.206;2023-02-03T04:16:26;5.82;;;1.23;;
32250;SDS011;41295;48.518;9.206;2023-02-03T04:18:29;1.45;;;1.20;;
32250;SDS011;41295;48.518;9.206;2023-02-03T04:20:31;2.35;;;0.95;;
32250;SDS011;41295;48.518;9.206;2023-02-03T04:22:34;1.73;;;0.90;;
32250;SDS011;41295;48.518;9.206;2023-02-03T04:24:36;2.15;;;0.93;;
32250;SDS011;41295;48.518;9.206;2023-02-03T04:26:39;1.33;;;0.77;;
32250;SDS011;41295;48.518;9.206;2023-02-03T04:28:43;1.85;;;0.80;;
32250;SDS011;41295;48.518;9.206;2023-02-03T04:30:46;2.38;;;0.80;;
32250;SDS011;41295;48.518;9.206;2023-02-03T04:32:49;1.92;;;1.00;;
32250;SDS011;41295;48.518;9.206;2023-02-03T04:34:51;2.38;;;0.85;;
32250;SDS011;41295;48.518;9.206;2023-02-03T04:36:54;1.20;;;0.90;;
32250;SDS011;41295;48.518;9.206;2023-02-03T04:38:56;0.75;;;0.70;;
32250;SDS011;41295;48.518;9.206;2023-02-03T04:40:59;1.88;;;1.10;;
32250;SDS011;41295;48.518;9.206;2023-02-03T04:43:04;3.35;;;1.08;;
32250;SDS011;41295;48.518;9.206;2023-02-03T04:45:12;4.32;;;1.38;;
32250;SDS011;41295;48.518;9.206;2023-02-03T04:47:15;2.47;;;0.90;;
32250;SDS011;41295;48.518;9.206;2023-02-03T04:49:20;2.67;;;1.40;;
32250;SDS011;41295;48.518;9.206;2023-02-03T04:51:22;1.25;;;1.10;;
32250;SDS011;41295;48.518;9.206;2023-02-03T04:53:25;1.15;;;1.00;;
32250;SDS011;41295;48.518;9.206;2023-02-03T04:55:28;1.42;;;1.08;;
32250;SDS011;41295;48.518;9.206;2023-02-03T04:57:30;4.78;;;1.10;;
32250;SDS011;41295;48.518;9.206;2023-02-03T04:59:33;2.35;;;1.55;;
32250;SDS011;41295;48.518;9.206;2023-02-03T05:01:37;3.20;;;1.02;;
32250;SDS011;41295;48.518;9.206;2023-02-03T05:03:40;2.50;;;1.08;;
32250;SDS011;41295;48.518;9.206;2023-02-03T05:05:42;1.55;;;1.00;;
32250;SDS011;41295;48.518;9.206;2023-02-03T05:07:45;1.90;;;1.10;;
32250;SDS011;41295;48.518;9.206;2023-02-03T05:09:47;2.97;;;1.10;;
32250;SDS011;41295;48.518;9.206;2023-02-03T05:11:50;1.75;;;0.93;;
32250;SDS011;41295;48.518;9.206;2023-02-03T05:13:53;1.20;;;0.95;;
32250;SDS011;41295;48.518;9.206;2023-02-03T05:15:55;5.30;;;1.17;;
32250;SDS011;41295;48.518;9.206;2023-02-03T05:17:59;1.55;;;1.02;;
32250;SDS011;41295;48.518;9.206;2023-02-03T05:20:02;3.38;;;0.93;;
32250;SDS011;41295;48.518;9.206;2023-02-03T05:22:05;1.88;;;0.80;;
32250;SDS011;41295;48.518;9.206;2023-02-03T05:24:08;2.08;;;0.98;;
32250;SDS011;41295;48.518;9.206;2023-02-03T05:26:11;2.45;;;1.23;;
32250;SDS011;41295;48.518;9.206;2023-02-03T05:28:14;2.78;;;1.00;;
32250;SDS011;41295;48.518;9.206;2023-02-03T05:30:16;1.00;;;0.90;;
32250;SDS011;41295;48.518;9.206;2023-02-03T05:32:19;3.65;;;0.93;;
32250;SDS011;41295;48.518;9.206;2023-02-03T05:34:23;1.02;;;0.90;;
32250;SDS011;41295;48.518;9.206;2023-02-03T05:36:26;1.83;;;0.95;;
32250;SDS011;41295;48.518;9.206;2023-02-03T05:38:29;1.92;;;0.98;;
32250;SDS011;41295;48.518;9.206;2023-02-03T05:40:31;1.63;;;1.10;;
32250;SDS011;41295;48.518;9.206;2023-02-03T05:42:52;1.23;;;1.00;;
32250;SDS011;41295;48.518;9.206;2023-02-03T05:44:54;1.50;;;1.02;;
32250;SDS011;41295;48.518;9.206;2023-02-03T05:46:57;1.92;;;1.10;;
32250;SDS011;41295;48.518;9.206;2023-02-03T05:49:00;2.92;;;1.10;;
32250;SDS011;41295;48.518;9.206;2023-02-03T05:51:04;1.38;;;0.73;;
32250;SDS011;41295;48.518;9.206;2023-02-03T05:53:07;2.47;;;1.15;;
32250;SDS011;41295;48.518;9.206;2023-02-03T05:55:10;1.30;;;0.98;;
32250;SDS011;41295;48.518;9.206;2023-02-03T05:57:12;1.58;;;1.10;;
32250;SDS011;41295;48.518;9.206;2023-02-03T05:59:15;1.25;;;1.15;;
32250;SDS011;41295;48.518;9.206;2023-02-03T06:01:18;1.92;;;1.10;;
32250;SDS011;41295;48.518;9.206;2023-02-03T06:03:20;2.80;;;1.45;;
32250;SDS011;41295;48.518;9.206;2023-02-03T06:05:23;4.00;;;1.30;;
32250;SDS011;41295;48.518;9.206;2023-02-03T06:07:28;3.20;;;1.10;;
32250;SDS011;41295;48.518;9.206;2023-02-03T06:09:31;2.53;;;1.08;;
32250;SDS011;41295;48.518;9.206;2023-02-03T06:11:33;5.60;;;1.27;;
32250;SDS011;41295;48.518;9.206;2023-02-03T06:13:37;4.10;;;1.17;;
32250;SDS011;41295;48.518;9.206;2023-02-03T06:15:40;1.55;;;1.13;;
32250;SDS011;41295;48.518;9.206;2023-02-03T06:17:44;3.05;;;1.30;;
32250;SDS011;41295;48.518;9.206;2023-02-03T06:19:47;1.70;;;1.02;;
32250;SDS011;41295;48.518;9.206;2023-02-03T06:21:50;4.40;;;1.40;;
32250;SDS011;41295;48.518;9.206;2023-02-03T06:23:54;2.42;;;1.30;;
32250;SDS011;41295;48.518;9.206;2023-02-03T06:25:57;1.25;;;1.15;;
32250;SDS011;41295;48.518;9.206;2023-02-03T06:28:00;2.78;;;1.00;;
32250;SDS011;41295;48.518;9.206;2023-02-03T06:30:03;2.30;;;1.30;;
32250;SDS011;41295;48.518;9.206;2023-02-03T06:32:06;2.33;;;1.40;;
32250;SDS011;41295;48.518;9.206;2023-02-03T06:34:09;4.50;;;1.10;;
32250;SDS011;41295;48.518;9.206;2023-02-03T06:36:12;4.05;;;1.58;;
32250;SDS011;41295;48.518;9.206;2023-02-03T06:38:14;1.15;;;1.05;;
32250;SDS011;41295;48.518;9.206;2023-02-03T06:40:19;3.53;;;1.30;;
32250;SDS011;41295;48.518;9.206;2023-02-03T06:42:21;2.85;;;0.98;;
32250;SDS011;41295;48.518;9.206;2023-02-03T06:44:24;1.42;;;1.10;;
32250;SDS011;41295;48.518;9.206;2023-02-03T06:46:26;5.07;;;1.40;;
32250;SDS011;41295;48.518;9.206;2023-02-03T06:48:30;2.67;;;1.13;;
32250;SDS011;41295;48.518;9.206;2023-02-03T06:50:33;3.17;;;1.75;;
32250;SDS011;41295;48.518;9.206;2023-02-03T06:52:36;3.05;;;1.33;;
32250;SDS011;41295;48.518;9.206;2023-02-03T06:54:38;3.95;;;1.02;;
32250;SDS011;41295;48.518;9.206;2023-02-03T06:56:42;3.15;;;1.05;;
32250;SDS011;41295;48.518;9.206;2023-02-03T06:58:45;3.53;;;1.33;;
32250;SDS011;41295;48.518;9.206;2023-02-03T07:00:48;4.25;;;1.40;;
32250;SDS011;41295;48.518;9.206;2023-02-03T07:02:52;2.88;;;1.27;;
32250;SDS011;41295;48.518;9.206;2023-02-03T07:04:55;4.30;;;1.45;;
32250;SDS011;41295;48.518;9.206;2023-02-03T07:06:57;4.18;;;1.30;;
32250;SDS011;41295;48.518;9.206;2023-02-03T07:09:01;2.33;;;1.35;;
32250;SDS011;41295;48.518;9.206;2023-02-03T07:11:05;4.95;;;1.35;;
32250;SDS011;41295;48.518;9.206;2023-02-03T07:13:09;2.55;;;1.40;;
32250;SDS011;41295;48.518;9.206;2023-02-03T07:15:12;2.85;;;1.60;;
32250;SDS011;41295;48.518;9.206;2023-02-03T07:17:15;2.85;;;1.38;;
32250;SDS011;41295;48.518;9.206;2023-02-03T07:19:17;2.13;;;1.50;;
32250;SDS011;41295;48.518;9.206;2023-02-03T07:21:20;2.25;;;1.40;;
32250;SDS011;41295;48.518;9.206;2023-02-03T07:23:22;2.95;;;1.20;;
32250;SDS011;41295;48.518;9.206;2023-02-03T07:25:25;3.33;;;1.77;;
32250;SDS011;41295;48.518;9.206;2023-02-03T07:27:28;2.80;;;1.40;;
32250;SDS011;41295;48.518;9.206;2023-02-03T07:29:32;1.90;;;1.20;;
32250;SDS011;41295;48.518;9.206;2023-02-03T07:31:34;2.72;;;1.45;;
32250;SDS011;41295;48.518;9.206;2023-02-03T07:33:38;2.83;;;1.38;;
32250;SDS011;41295;48.518;9.206;2023-02-03T07:35:41;2.45;;;1.48;;
32250;SDS011;41295;48.518;9.206;2023-02-03T07:37:44;1.60;;;1.27;;
32250;SDS011;41295;48.518;9.206;2023-02-03T07:39:46;2.72;;;1.30;;
32250;SDS011;41295;48.518;9.206;2023-02-03T07:41:49;4.57;;;1.42;;
32250;SDS011;41295;48.518;9.206;2023-02-03T07:43:52;3.50;;;1.27;;
32250;SDS011;41295;48.518;9.206;2023-02-03T07:45:56;3.60;;;1.60;;
32250;SDS011;41295;48.518;9.206;2023-02-03T07:48:01;4.28;;;1.20;;
32250;SDS011;41295;48.518;9.206;2023-02-03T07:50:05;4.00;;;1.40;;
32250;SDS011;41295;48.518;9.206;2023-02-03T07:52:08;2.90;;;1.40;;
32250;SDS011;41295;48.518;9.206;2023-02-03T07:54:10;2.85;;;1.20;;
32250;SDS011;41295;48.518;9.206;2023-02-03T07:56:13;5.20;;;1.65;;
32250;SDS011;41295;48.518;9.206;2023-02-03T07:58:15;2.78;;;1.27;;
32250;SDS011;41295;48.518;9.206;2023-02-03T08:00:18;2.92;;;1.58;;
32250;SDS011;41295;48.518;9.206;2023-02-03T08:02:23;4.35;;;1.50;;
32250;SDS011;41295;48.518;9.206;2023-02-03T08:04:25;3.58;;;1.58;;
32250;SDS011;41295;48.518;9.206;2023-02-03T08:06:28;6.28;;;1.40;;
32250;SDS011;41295;48.518;9.206;2023-02-03T08:08:31;7.35;;;1.40;;
32250;SDS011;41295;48.518;9.206;2023-02-03T08:10:34;3.75;;;1.98;;
32250;SDS011;41295;48.518;9.206;2023-02-03T08:12:37;3.70;;;1.45;;
32250;SDS011;41295;48.518;9.206;2023-02-03T08:14:40;3.75;;;1.63;;
32250;SDS011;41295;48.518;9.206;2023-02-03T08:16:42;3.83;;;1.58;;
32250;SDS011;41295;48.518;9.206;2023-02-03T08:18:47;5.55;;;1.50;;
32250;SDS011;41295;48.518;9.206;2023-02-03T08:20:50;3.35;;;1.35;;
32250;SDS011;41295;48.518;9.206;2023-02-03T08:22:52;3.17;;;1.75;;
32250;SDS011;41295;48.518;9.206;2023-02-03T08:24:55;3.72;;;2.25;;
32250;SDS011;41295;48.518;9.206;2023-02-03T08:26:57;3.13;;;1.67;;
32250;SDS011;41295;48.518;9.206;2023-02-03T08:29:02;3.30;;;1.60;;
32250;SDS011;41295;48.518;9.206;2023-02-03T08:31:08;7.68;;;2.08;;
32250;SDS011;41295;48.518;9.206;2023-02-03T08:33:11;5.82;;;1.80;;
32250;SDS011;41295;48.518;9.206;2023-02-03T08:35:15;4.75;;;2.00;;
32250;SDS011;41295;48.518;9.206;2023-02-03T08:37:18;6.28;;;1.95;;
32250;SDS011;41295;48.518;9.206;2023-02-03T08:39:22;2.70;;;1.80;;
32250;SDS011;41295;48.518;9.206;2023-02-03T08:41:25;2.40;;;1.48;;
32250;SDS011;41295;48.518;9.206;2023-02-03T08:43:28;4.68;;;2.05;;
32250;SDS011;41295;48.518;9.206;2023-02-03T08:45:30;5.53;;;1.95;;
32250;SDS011;41295;48.518;9.206;2023-02-03T08:47:33;3.13;;;1.40;;
32250;SDS011;41295;48.518;9.206;2023-02-03T08:49:37;3.88;;;1.67;;
32250;SDS011;41295;48.518;9.206;2023-02-03T08:51:42;3.10;;;1.45;;
32250;SDS011;41295;48.518;9.206;2023-02-03T08:53:45;8.73;;;1.85;;
32250;SDS011;41295;48.518;9.206;2023-02-03T08:55:48;4.22;;;1.70;;
32250;SDS011;41295;48.518;9.206;2023-02-03T08:57:51;1.98;;;1.45;;
32250;SDS011;41295;48.518;9.206;2023-02-03T08:59:53;1.63;;;1.38;;
32250;SDS011;41295;48.518;9.206;2023-02-03T09:01:56;2.85;;;1.40;;
32250;SDS011;41295;48.518;9.206;2023-02-03T09:04:00;3.90;;;1.60;;
32250;SDS011;41295;48.518;9.206;2023-02-03T09:06:04;4.90;;;1.40;;
32250;SDS011;41295;48.518;9.206;2023-02-03T09:08:10;3.35;;;1.50;;
32250;SDS011;41295;48.518;9.206;2023-02-03T09:10:12;4.22;;;1.90;;
32250;SDS011;41295;48.518;9.206;2023-02-03T09:12:15;4.82;;;1.90;;
32250;SDS011;41295;48.518;9.206;2023-02-03T09:14:18;2.47;;;1.45;;
32250;SDS011;41295;48.518;9.206;2023-02-03T09:16:20;1.88;;;1.30;;
32250;SDS011;41295;48.518;9.206;2023-02-03T09:18:23;1.70;;;1.33;;
32250;SDS011;41295;48.518;9.206;2023-02-03T09:20:26;4.35;;;1.48;;
32250;SDS011;41295;48.518;9.206;2023-02-03T09:22:29;5.72;;;2.10;;
32250;SDS011;41295;48.518;9.206;2023-02-03T09:24:34;3.60;;;1.30;;
32250;SDS011;41295;48.518;9.206;2023-02-03T09:26:36;2.83;;;1.50;;
32250;SDS011;41295;48.518;9.206;2023-02-03T09:28:39;2.13;;;1.23;;
32250;SDS011;41295;48.518;9.206;2023-02-03T09:30:42;1.85;;;1.20;;
32250;SDS011;41295;48.518;9.206;2023-02-03T09:32:44;2.10;;;1.25;;
32250;SDS011;41295;48.518;9.206;2023-02-03T09:34:54;6.22;;;2.00;;
32250;SDS011;41295;48.518;9.206;2023-02-03T09:36:56;1.83;;;1.38;;
32250;SDS011;41295;48.518;9.206;2023-02-03T09:38:59;5.07;;;2.22;;
32250;SDS011;41295;48.518;9.206;2023-02-03T09:41:06;4.80;;;1.77;;
32250;SDS011;41295;48.518;9.206;2023-02-03T09:43:25;2.45;;;1.40;;
32250;SDS011;41295;48.518;9.206;2023-02-03T09:45:33;3.47;;;1.67;;
32250;SDS011;41295;48.518;9.206;2023-02-03T09:47:36;3.10;;;1.40;;
32250;SDS011;41295;48.518;9.206;2023-02-03T09:49:43;2.30;;;1.45;;
32250;SDS011;41295;48.518;9.206;2023-02-03T09:51:51;2.40;;;1.70;;
32250;SDS011;41295;48.518;9.206;2023-02-03T09:53:59;2.33;;;1.38;;
32250;SDS011;41295;48.518;9.206;2023-02-03T09:56:09;4.65;;;1.70;;
32250;SDS011;41295;48.518;9.206;2023-02-03T09:58:23;3.75;;;1.50;;
32250;SDS011;41295;48.518;9.206;2023-02-03T10:00:29;4.22;;;1.60;;
32250;SDS011;41295;48.518;9.206;2023-02-03T10:02:40;3.17;;;1.30;;
32250;SDS011;41295;48.518;9.206;2023-02-03T10:04:54;4.97;;;1.88;;
32250;SDS011;41295;48.518;9.206;2023-02-03T10:07:02;1.88;;;1.60;;
32250;SDS011;41295;48.518;9.206;2023-02-03T10:09:16;2.72;;;1.90;;
32250;SDS011;41295;48.518;9.206;2023-02-03T10:11:29;1.73;;;1.30;;
32250;SDS011;41295;48.518;9.206;2023-02-03T10:13:56;4.60;;;1.70;;
32250;SDS011;41295;48.518;9.206;2023-02-03T10:16:13;2.53;;;1.42;;
32250;SDS011;41295;48.518;9.206;2023-02-03T10:18:27;1.73;;;0.82;;
32250;SDS011;41295;48.518;9.206;2023-02-03T10:20:33;3.13;;;1.05;;
32250;SDS011;41295;48.518;9.206;2023-02-03T10:22:41;4.68;;;1.33;;
32250;SDS011;41295;48.518;9.206;2023-02-03T10:24:48;2.03;;;1.02;;
32250;SDS011;41295;48.518;9.206;2023-02-03T10:26:56;1.88;;;0.95;;
32250;SDS011;41295;48.518;9.206;2023-02-03T10:29:01;2.17;;;1.02;;
32250;SDS011;41295;48.518;9.206;2023-02-03T10:31:12;2.17;;;1.20;;
32250;SDS011;41295;48.518;9.206;2023-02-03T10:33:19;4.50;;;1.10;;
32250;SDS011;41295;48.518;9.206;2023-02-03T10:35:24;4.88;;;1.13;;
32250;SDS011;41295;48.518;9.206;2023-02-03T10:37:34;2.40;;;1.20;;
32250;SDS011;41295;48.518;9.206;2023-02-03T10:39:44;2.03;;;1.30;;
32250;SDS011;41295;48.518;9.206;2023-02-03T10:41:48;4.53;;;1.65;;
32250;SDS011;41295;48.518;9.206;2023-02-03T10:43:52;3.15;;;0.95;;
32250;SDS011;41295;48.518;9.206;2023-02-03T10:45:57;1.02;;;0.90;;
32250;SDS011;41295;48.518;9.206;2023-02-03T10:48:00;2.60;;;1.00;;
32250;SDS011;41295;48.518;9.206;2023-02-03T10:50:06;2.25;;;1.10;;
32250;SDS011;41295;48.518;9.206;2023-02-03T10:52:29;1.73;;;1.02;;
32250;SDS011;41295;48.518;9.206;2023-02-03T10:54:34;1.45;;;1.05;;
32250;SDS011;41295;48.518;9.206;2023-02-03T10:56:38;2.25;;;0.93;;
32250;SDS011;41295;48.518;9.206;2023-02-03T10:58:45;1.58;;;0.95;;
32250;SDS011;41295;48.518;9.206;2023-02-03T11:00:51;3.67;;;1.00;;
32250;SDS011;41295;48.518;9.206;2023-02-03T11:02:58;1.23;;;1.10;;
32250;SDS011;41295;48.518;9.206;2023-02-03T11:05:07;1.73;;;1.05;;
32250;SDS011;41295;48.518;9.206;2023-02-03T11:07:22;1.80;;;1.10;;
32250;SDS011;41295;48.518;9.206;2023-02-03T11:09:28;1.90;;;1.10;;
32250;SDS011;41295;48.518;9.206;2023-02-03T11:11:34;1.38;;;0.90;;
32250;SDS011;41295;48.518;9.206;2023-02-03T11:13:41;4.25;;;0.85;;
32250;SDS011;41295;48.518;9.206;2023-02-03T11:15:51;3.78;;;0.98;;
32250;SDS011;41295;48.518;9.206;2023-02-03T11:17:56;1.45;;;1.00;;
32250;SDS011;41295;48.518;9.206;2023-02-03T11:20:01;2.38;;;0.95;;
32250;SDS011;41295;48.518;9.206;2023-02-03T11:22:24;4.22;;;1.05;;
32250;SDS011;41295;48.518;9.206;2023-02-03T11:24:30;1.45;;;0.90;;
32250;SDS011;41295;48.518;9.206;2023-02-03T11:26:39;2.05;;;1.00;;
32250;SDS011;41295;48.518;9.206;2023-02-03T11:28:45;1.63;;;1.05;;
32250;SDS011;41295;48.518;9.206;2023-02-03T11:30:55;2.30;;;1.00;;
32250;SDS011;41295;48.518;9.206;2023-02-03T11:32:59;1.88;;;1.40;;
32250;SDS011;41295;48.518;9.206;2023-02-03T11:35:03;1.55;;;0.80;;
32250;SDS011;41295;48.518;9.206;2023-02-03T11:37:24;1.10;;;0.82;;
32250;SDS011;41295;48.518;9.206;2023-02-03T11:39:29;2.17;;;0.80;;
32250;SDS011;41295;48.518;9.206;2023-02-03T11:41:36;1.20;;;0.85;;
32250;SDS011;41295;48.518;9.206;2023-02-03T11:43:39;0.75;;;0.73;;
32250;SDS011;41295;48.518;9.206;2023-02-03T11:45:42;0.93;;;0.80;;
32250;SDS011;41295;48.518;9.206;2023-02-03T11:47:48;2.00;;;0.82;;
32250;SDS011;41295;48.518;9.206;2023-02-03T11:50:09;1.88;;;0.98;;
32250;SDS011;41295;48.518;9.206;2023-02-03T11:54:51;2.38;;;1.00;;
32250;SDS011;41295;48.518;9.206;2023-02-03T11:57:12;0.80;;;0.80;;
32250;SDS011;41295;48.518;9.206;2023-02-03T11:59:34;1.27;;;0.93;;
32250;SDS011;41295;48.518;9.206;2023-02-03T12:01:51;1.33;;;1.02;;
32250;SDS011;41295;48.518;9.206;2023-02-03T12:04:27;1.30;;;1.10;;
32250;SDS011;41295;48.518;9.206;2023-02-03T12:09:12;2.03;;;0.98;;
32250;SDS011;41295;48.518;9.206;2023-02-03T12:11:27;2.65;;;1.27;;
32250;SDS011;41295;48.518;9.206;2023-02-03T12:13:46;5.32;;;1.00;;
32250;SDS011;41295;48.518;9.206;2023-02-03T12:16:13;4.00;;;0.88;;
32250;SDS011;41295;48.518;9.206;2023-02-03T12:18:31;2.00;;;1.10;;
32250;SDS011;41295;48.518;9.206;2023-02-03T12:20:50;2.55;;;1.13;;
32250;SDS011;41295;48.518;9.206;2023-02-03T12:23:04;1.63;;;0.88;;
32250;SDS011;41295;48.518;9.206;2023-02-03T12:25:21;1.90;;;0.90;;
32250;SDS011;41295;48.518;9.206;2023-02-03T12:27:40;3.17;;;1.10;;
32250;SDS011;41295;48.518;9.206;2023-02-03T12:29:52;7.35;;;2.05;;
32250;SDS011;41295;48.518;9.206;2023-02-03T12:32:01;3.05;;;1.40;;
32250;SDS011;41295;48.518;9.206;2023-02-03T12:34:14;3.38;;;1.52;;
32250;SDS011;41295;48.518;9.206;2023-02-03T12:36:25;2.85;;;1.20;;
32250;SDS011;41295;48.518;9.206;2023-02-03T12:38:30;1.80;;;1.10;;
32250;SDS011;41295;48.518;9.206;2023-02-03T12:40:39;3.45;;;1.58;;
32250;SDS011;41295;48.518;9.206;2023-02-03T12:42:50;2.22;;;1.48;;
32250;SDS011;41295;48.518;9.206;2023-02-03T12:44:58;1.38;;;1.13;;
32250;SDS011;41295;48.518;9.206;2023-02-03T12:47:06;4.95;;;1.25;;